createdAt,value
2018-07-22T00:01:48.018Z,4.40
2018-07-22T00:04:18.802Z,5.90
2018-07-22T00:06:49.736Z,5.57
2018-07-22T00:09:20.454Z,4.93
2018-07-22T00:11:51.203Z,4.40
2018-07-22T00:14:21.989Z,4.63
2018-07-22T00:16:52.661Z,5.37
2018-07-22T00:19:23.165Z,5.77
2018-07-22T00:21:53.874Z,8.00
2018-07-22T00:24:24.509Z,10.20
2018-07-22T00:26:55.348Z,7.93
2018-07-22T00:29:26.052Z,5.13
2018-07-22T00:31:56.928Z,4.37
2018-07-22T00:34:27.473Z,4.43
2018-07-22T00:36:58.176Z,4.70
2018-07-22T00:39:28.869Z,6.37
2018-07-22T00:41:59.508Z,6.03
2018-07-22T00:44:29.957Z,5.80
2018-07-22T00:47:00.663Z,6.73
2018-07-22T00:49:31.337Z,7.43
2018-07-22T00:52:02.229Z,8.67
2018-07-22T00:54:32.852Z,8.97
2018-07-22T00:57:03.783Z,5.67
2018-07-22T00:59:35.355Z,5.97
2018-07-22T01:02:06.121Z,5.03
2018-07-22T01:04:36.811Z,4.57
2018-07-22T01:07:07.697Z,4.70
2018-07-22T01:09:38.473Z,4.33
2018-07-22T01:12:09.245Z,4.70
2018-07-22T01:14:39.944Z,5.03
2018-07-22T01:17:10.873Z,4.70
2018-07-22T01:19:41.460Z,4.50
2018-07-22T01:22:12.333Z,4.73
2018-07-22T01:24:42.999Z,4.83
2018-07-22T01:27:13.661Z,4.80
2018-07-22T01:29:44.351Z,4.70
2018-07-22T01:32:15.167Z,4.63
2018-07-22T01:34:46.185Z,5.90
2018-07-22T01:37:17.652Z,5.77
2018-07-22T01:39:48.316Z,5.87
2018-07-22T01:42:18.892Z,5.00
2018-07-22T01:44:49.631Z,5.80
2018-07-22T01:47:20.732Z,5.33
2018-07-22T01:49:51.300Z,5.07
2018-07-22T01:52:22.018Z,4.83
2018-07-22T01:54:52.541Z,5.87
2018-07-22T01:57:23.274Z,5.20
2018-07-22T01:59:53.981Z,5.50
2018-07-22T02:02:24.925Z,8.60
2018-07-22T02:04:55.647Z,5.70
2018-07-22T02:07:26.417Z,5.10
2018-07-22T02:09:56.517Z,11.43
2018-07-22T02:12:27.208Z,11.43
2018-07-22T02:14:58.609Z,9.30
2018-07-22T02:17:29.390Z,6.23
2018-07-22T02:19:59.997Z,6.27
2018-07-22T02:22:30.643Z,5.93
2018-07-22T02:25:01.403Z,5.80
2018-07-22T02:27:32.196Z,7.07
2018-07-22T02:30:03.034Z,6.67
2018-07-22T02:32:33.791Z,7.07
2018-07-22T02:35:04.534Z,5.77
2018-07-22T02:37:36.137Z,5.40
2018-07-22T02:40:06.801Z,4.80
2018-07-22T02:42:37.462Z,5.20
2018-07-22T02:45:08.009Z,5.47
2018-07-22T02:47:38.769Z,5.47
2018-07-22T02:50:09.336Z,4.90
2018-07-22T02:52:40.172Z,5.27
2018-07-22T02:55:10.764Z,4.87
2018-07-22T02:57:41.841Z,5.17
2018-07-22T03:00:12.539Z,4.77
2018-07-22T03:02:43.378Z,5.57
2018-07-22T03:05:14.073Z,5.47
2018-07-22T03:07:45.204Z,5.27
2018-07-22T03:10:15.995Z,5.80
2018-07-22T03:12:46.883Z,5.10
2018-07-22T03:15:17.713Z,5.30
2018-07-22T03:17:48.896Z,4.87
2018-07-22T03:20:19.646Z,4.90
2018-07-22T03:22:50.388Z,4.97
2018-07-22T03:25:20.621Z,4.77
2018-07-22T03:27:51.324Z,4.90
2018-07-22T03:30:21.984Z,4.80
2018-07-22T03:32:52.877Z,4.73
2018-07-22T03:35:23.528Z,5.30
2018-07-22T03:37:54.262Z,4.80
2018-07-22T03:40:24.896Z,5.50
2018-07-22T03:42:55.689Z,5.07
2018-07-22T03:45:26.337Z,4.77
2018-07-22T03:47:57.109Z,5.17
2018-07-22T03:50:28.796Z,5.40
2018-07-22T03:52:59.760Z,4.80
2018-07-22T03:55:31.908Z,5.60
2018-07-22T03:58:02.537Z,5.63
2018-07-22T04:00:33.242Z,5.27
2018-07-22T04:03:04.162Z,5.13
2018-07-22T04:05:34.840Z,5.27
2018-07-22T04:08:05.783Z,5.17
2018-07-22T04:10:36.406Z,6.70
2018-07-22T04:13:07.293Z,5.43
2018-07-22T04:15:38.049Z,5.47
2018-07-22T04:18:08.811Z,5.57
2018-07-22T04:20:39.484Z,5.47
2018-07-22T04:23:11.518Z,6.57
2018-07-22T04:25:42.005Z,6.03
2018-07-22T04:28:12.244Z,6.23
2018-07-22T04:30:42.836Z,6.13
2018-07-22T04:33:13.717Z,5.93
2018-07-22T04:35:44.496Z,5.73
2018-07-22T04:38:15.216Z,5.57
2018-07-22T04:40:45.710Z,5.70
2018-07-22T04:43:16.348Z,5.87
2018-07-22T04:45:47.030Z,7.40
2018-07-22T04:48:17.905Z,7.40
2018-07-22T04:50:48.517Z,7.47
2018-07-22T04:53:19.500Z,7.30
2018-07-22T04:55:50.120Z,6.47
2018-07-22T04:58:20.846Z,6.90
2018-07-22T05:00:51.496Z,7.17
2018-07-22T05:03:22.234Z,6.77
2018-07-22T05:05:53.014Z,7.37
2018-07-22T05:08:23.728Z,6.27
2018-07-22T05:10:54.209Z,6.57
2018-07-22T05:13:24.829Z,8.47
2018-07-22T05:15:55.475Z,7.33
2018-07-22T05:18:26.341Z,8.47
2018-07-22T05:20:56.996Z,8.27
2018-07-22T05:23:27.640Z,7.07
2018-07-22T05:25:58.317Z,7.27
2018-07-22T05:28:29.318Z,6.73
2018-07-22T05:30:59.873Z,7.00
2018-07-22T05:33:30.513Z,6.37
2018-07-22T05:36:01.159Z,8.03
2018-07-22T05:38:31.567Z,7.37
2018-07-22T05:41:02.213Z,7.40
2018-07-22T05:43:33.024Z,6.93
2018-07-22T05:46:04.509Z,7.07
2018-07-22T05:48:35.541Z,5.50
2018-07-22T05:51:06.924Z,5.40
2018-07-22T05:53:37.920Z,5.30
2018-07-22T05:56:08.493Z,5.30
2018-07-22T05:58:39.241Z,5.17
2018-07-22T06:01:09.860Z,4.87
2018-07-22T06:03:40.620Z,4.67
2018-07-22T06:06:11.352Z,4.20
2018-07-22T06:08:42.265Z,4.07
2018-07-22T06:11:12.849Z,4.47
2018-07-22T06:13:43.538Z,4.77
2018-07-22T06:16:14.269Z,4.17
2018-07-22T06:18:45.308Z,4.13
2018-07-22T06:21:15.984Z,3.97
2018-07-22T06:23:46.607Z,4.10
2018-07-22T06:26:17.566Z,4.20
2018-07-22T06:28:48.545Z,3.80
2018-07-22T06:31:19.161Z,4.67
2018-07-22T06:33:49.913Z,7.17
2018-07-22T06:36:20.044Z,4.50
2018-07-22T06:38:50.926Z,4.20
2018-07-22T06:41:21.665Z,4.73
2018-07-22T06:43:52.696Z,4.50
2018-07-22T06:46:23.267Z,4.30
2018-07-22T06:48:53.932Z,4.57
2018-07-22T06:51:24.745Z,4.33
2018-07-22T06:53:55.393Z,4.70
2018-07-22T06:56:25.973Z,4.00
2018-07-22T06:58:57.341Z,4.37
2018-07-22T07:01:27.933Z,4.10
2018-07-22T07:03:58.905Z,4.40
2018-07-22T07:06:29.789Z,4.33
2018-07-22T07:09:00.845Z,4.53
2018-07-22T07:11:31.542Z,4.23
2018-07-22T07:14:02.433Z,4.77
2018-07-22T07:16:33.000Z,4.50
2018-07-22T07:19:03.801Z,4.50
2018-07-22T07:21:34.421Z,4.30
2018-07-22T07:24:05.041Z,4.20
2018-07-22T07:26:35.738Z,4.10
2018-07-22T07:29:06.312Z,3.77
2018-07-22T07:31:37.204Z,4.60
2018-07-22T07:34:08.588Z,4.40
2018-07-22T07:36:39.247Z,4.58
2018-07-22T07:39:12.867Z,4.58
2018-07-22T07:41:43.466Z,4.70
2018-07-22T07:44:14.229Z,4.75
2018-07-22T07:46:44.941Z,4.55
2018-07-22T07:49:15.823Z,4.42
2018-07-22T07:51:47.433Z,4.28
2018-07-22T07:54:18.369Z,4.60
2018-07-22T07:56:49.051Z,4.00
2018-07-22T07:59:20.105Z,4.00
2018-07-22T08:01:50.752Z,4.37
2018-07-22T08:04:21.685Z,4.42
2018-07-22T08:06:52.584Z,4.78
2018-07-22T08:09:23.872Z,4.17
2018-07-22T08:11:55.072Z,4.25
2018-07-22T08:14:26.718Z,5.30
2018-07-22T08:16:56.941Z,4.58
2018-07-22T08:19:27.643Z,4.47
2018-07-22T08:21:58.328Z,4.90
2018-07-22T08:24:29.166Z,4.60
2018-07-22T08:26:59.942Z,5.20
2018-07-22T08:29:31.628Z,4.75
2018-07-22T08:32:03.157Z,4.55
2018-07-22T08:34:33.718Z,4.30
2018-07-22T08:37:04.352Z,4.83
2018-07-22T08:39:35.043Z,4.92
2018-07-22T08:42:05.714Z,4.35
2018-07-22T08:44:36.502Z,5.12
2018-07-22T08:47:07.239Z,4.40
2018-07-22T08:49:38.100Z,4.60
2018-07-22T08:52:09.155Z,4.37
2018-07-22T08:54:39.926Z,4.45
2018-07-22T08:57:10.557Z,4.08
2018-07-22T08:59:41.313Z,3.17
2018-07-22T09:02:11.967Z,3.60
2018-07-22T09:04:42.770Z,3.00
2018-07-22T09:07:13.503Z,3.40
2018-07-22T09:09:44.457Z,3.10
2018-07-22T09:12:15.053Z,3.40
2018-07-22T09:14:45.989Z,2.98
2018-07-22T09:17:16.754Z,3.20
2018-07-22T09:19:47.598Z,3.08
2018-07-22T09:22:18.278Z,2.50
2018-07-22T09:24:50.012Z,3.00
2018-07-22T09:27:20.432Z,2.77
2018-07-22T09:29:51.295Z,3.00
2018-07-22T09:32:21.949Z,2.75
2018-07-22T09:34:52.757Z,3.17
2018-07-22T09:37:23.487Z,2.60
2018-07-22T09:39:54.314Z,2.90
2018-07-22T09:42:24.928Z,2.83
2018-07-22T09:44:55.386Z,2.65
2018-07-22T09:47:26.122Z,2.60
2018-07-22T09:49:57.053Z,2.55
2018-07-22T09:52:27.876Z,2.80
2018-07-22T09:54:58.520Z,2.80
2018-07-22T09:57:29.093Z,2.52
2018-07-22T09:59:59.861Z,2.42
2018-07-22T10:02:30.511Z,2.30
2018-07-22T10:05:02.115Z,2.70
2018-07-22T10:07:32.909Z,2.40
2018-07-22T10:10:03.822Z,2.45
2018-07-22T10:12:35.509Z,2.17
2018-07-22T10:15:06.308Z,2.90
2018-07-22T10:17:38.783Z,2.30
2018-07-22T10:20:09.629Z,2.40
2018-07-22T10:22:40.210Z,2.72
2018-07-22T10:25:11.302Z,2.90
2018-07-22T10:27:42.282Z,2.62
2018-07-22T10:30:13.191Z,2.65
2018-07-22T10:32:43.801Z,2.60
2018-07-22T10:35:14.677Z,2.60
2018-07-22T10:37:45.220Z,2.50
2018-07-22T10:40:16.418Z,2.70
2018-07-22T10:42:47.239Z,2.67
2018-07-22T10:45:18.182Z,2.62
2018-07-22T10:47:48.880Z,3.05
2018-07-22T10:50:19.864Z,2.72
2018-07-22T10:52:50.441Z,3.20
2018-07-22T10:55:21.257Z,2.58
2018-07-22T10:57:51.888Z,2.70
2018-07-22T11:00:22.997Z,2.70
2018-07-22T11:02:53.624Z,3.05
2018-07-22T11:05:24.325Z,3.02
2018-07-22T11:07:54.992Z,2.72
2018-07-22T11:10:25.868Z,2.90
2018-07-22T11:12:56.874Z,3.42
2018-07-22T11:15:27.693Z,3.35
2018-07-22T11:17:58.333Z,3.15
2018-07-22T11:20:29.101Z,3.12
2018-07-22T11:22:59.713Z,3.00
2018-07-22T11:25:30.460Z,3.45
2018-07-22T11:28:00.973Z,3.25
2018-07-22T11:30:31.638Z,3.42
2018-07-22T11:33:02.253Z,3.55
2018-07-22T11:35:33.350Z,3.70
2018-07-22T11:38:03.905Z,3.70
2018-07-22T11:40:34.645Z,3.83
2018-07-22T11:43:05.268Z,3.70
2018-07-22T11:45:36.019Z,3.72
2018-07-22T11:48:06.613Z,3.58
2018-07-22T11:50:37.606Z,3.60
2018-07-22T11:53:08.282Z,4.22
2018-07-22T11:55:38.928Z,4.10
2018-07-22T11:58:09.584Z,3.77
2018-07-22T12:00:40.437Z,3.75
2018-07-22T12:03:11.106Z,3.70
2018-07-22T12:05:41.927Z,4.33
2018-07-22T12:08:12.592Z,4.05
2018-07-22T12:10:43.490Z,3.60
2018-07-22T12:13:14.269Z,3.60
2018-07-22T12:15:45.030Z,3.72
2018-07-22T12:18:22.482Z,3.25
2018-07-22T12:20:53.260Z,3.62
2018-07-22T12:23:23.876Z,3.75
2018-07-22T12:25:54.604Z,3.65
2018-07-22T12:28:25.225Z,3.98
2018-07-22T12:30:55.928Z,3.50
2018-07-22T12:33:26.649Z,3.55
2018-07-22T12:35:57.421Z,3.70
2018-07-22T12:38:28.121Z,3.55
2018-07-22T12:40:58.529Z,3.55
2018-07-22T12:43:29.366Z,3.65
2018-07-22T12:46:00.417Z,3.62
2018-07-22T12:48:30.957Z,3.50
2018-07-22T12:51:01.745Z,3.77
2018-07-22T12:53:32.437Z,3.42
2018-07-22T12:56:02.572Z,3.20
2018-07-22T12:58:33.381Z,3.80
2018-07-22T13:01:04.077Z,4.00
2018-07-22T13:03:35.115Z,3.83
2018-07-22T13:06:05.736Z,3.22
2018-07-22T13:08:36.318Z,3.50
2018-07-22T13:11:06.449Z,4.08
2018-07-22T13:13:37.353Z,3.40
2018-07-22T13:16:08.274Z,3.25
2018-07-22T13:18:38.974Z,3.30
2018-07-22T13:21:09.701Z,3.70
2018-07-22T13:23:40.388Z,3.15
2018-07-22T13:26:11.149Z,3.47
2018-07-22T13:28:41.976Z,3.98
2018-07-22T13:31:12.628Z,3.87
2018-07-22T13:33:43.300Z,3.90
2018-07-22T13:36:13.984Z,2.95
2018-07-22T13:38:44.522Z,3.50
2018-07-22T13:41:15.148Z,3.10
2018-07-22T13:43:45.977Z,3.00
2018-07-22T13:46:16.785Z,3.65
2018-07-22T13:48:47.518Z,2.83
2018-07-22T13:51:18.073Z,3.17
2018-07-22T13:53:48.472Z,3.33
2018-07-22T13:56:19.254Z,3.25
2018-07-22T13:58:50.022Z,3.35
2018-07-22T14:01:20.840Z,2.95
2018-07-22T14:03:51.714Z,3.00
2018-07-22T14:06:22.278Z,3.62
2018-07-22T14:08:53.061Z,3.12
2018-07-22T14:11:23.862Z,3.58
2018-07-22T14:13:54.853Z,3.58
2018-07-22T14:16:25.576Z,3.40
2018-07-22T14:18:56.332Z,3.10
2018-07-22T14:21:26.943Z,3.10
2018-07-22T14:23:57.891Z,3.22
2018-07-22T14:26:28.561Z,3.30
2018-07-22T14:28:59.341Z,3.65
2018-07-22T14:31:29.926Z,3.72
2018-07-22T14:34:00.805Z,3.47
2018-07-22T14:36:31.509Z,3.25
2018-07-22T14:39:02.461Z,3.20
2018-07-22T14:41:33.130Z,3.10
2018-07-22T14:44:03.933Z,3.87
2018-07-22T14:46:34.454Z,3.25
2018-07-22T14:49:05.331Z,3.30
2018-07-22T14:51:35.913Z,3.58
2018-07-22T14:54:07.222Z,4.22
2018-07-22T14:56:37.983Z,3.90
2018-07-22T14:59:08.705Z,3.92
2018-07-22T15:01:39.208Z,3.55
2018-07-22T15:04:10.349Z,3.72
2018-07-22T15:06:41.053Z,3.98
2018-07-22T15:09:11.832Z,3.77
2018-07-22T15:11:42.496Z,3.87
2018-07-22T15:14:13.185Z,3.92
2018-07-22T15:16:43.858Z,3.80
2018-07-22T15:19:14.573Z,4.10
2018-07-22T15:21:45.257Z,3.52
2018-07-22T15:24:16.021Z,3.60
2018-07-22T15:26:46.672Z,3.47
2018-07-22T15:29:17.486Z,3.42
2018-07-22T15:31:48.095Z,4.08
2018-07-22T15:34:18.827Z,4.05
2018-07-22T15:36:49.451Z,4.78
2018-07-22T15:39:20.289Z,3.80
2018-07-22T15:41:50.948Z,4.20
2018-07-22T15:44:21.736Z,3.60
2018-07-22T15:46:52.336Z,4.37
2018-07-22T15:49:23.202Z,3.65
2018-07-22T15:51:53.866Z,4.40
2018-07-22T15:54:24.653Z,4.17
2018-07-22T15:56:55.268Z,3.75
2018-07-22T15:59:25.880Z,4.00
2018-07-22T16:01:56.200Z,3.95
2018-07-22T16:04:27.073Z,4.20
2018-07-22T16:06:57.799Z,4.10
2018-07-22T16:09:28.460Z,4.53
2018-07-22T16:11:59.054Z,4.25
2018-07-22T16:14:29.909Z,4.50
2018-07-22T16:17:00.617Z,4.05
2018-07-22T16:19:31.581Z,4.90
2018-07-22T16:22:02.245Z,5.15
2018-07-22T16:24:33.072Z,4.45
2018-07-22T16:27:03.918Z,5.53
2018-07-22T16:29:34.799Z,4.08
2018-07-22T16:32:05.482Z,4.22
2018-07-22T16:34:36.279Z,4.17
2018-07-22T16:37:06.937Z,4.53
2018-07-22T16:39:37.945Z,4.65
2018-07-22T16:42:08.663Z,4.75
2018-07-22T16:44:39.513Z,4.78
2018-07-22T16:47:10.113Z,5.40
2018-07-22T16:49:40.916Z,4.17
2018-07-22T16:52:11.532Z,4.58
2018-07-22T16:54:42.429Z,4.30
2018-07-22T16:57:13.119Z,3.62
2018-07-22T16:59:44.049Z,7.90
2018-07-22T17:02:14.686Z,3.60
2018-07-22T17:04:45.634Z,49.70
2018-07-22T17:07:16.199Z,34.37
2018-07-22T17:09:46.889Z,12.47
2018-07-22T17:12:17.468Z,11.30
2018-07-22T17:14:48.153Z,5.03
2018-07-22T17:17:18.801Z,3.03
2018-07-22T17:19:49.623Z,3.43
2018-07-22T17:22:20.256Z,2.33
2018-07-22T17:24:51.041Z,2.00
2018-07-22T17:27:21.493Z,2.17
2018-07-22T17:29:52.288Z,1.70
2018-07-22T17:32:23.025Z,1.90
2018-07-22T17:34:54.079Z,1.93
2018-07-22T17:37:24.746Z,1.87
2018-07-22T17:39:59.568Z,1.60
2018-07-22T17:42:32.317Z,1.73
2018-07-22T17:45:03.280Z,1.73
2018-07-22T17:47:33.888Z,1.70
2018-07-22T17:50:04.773Z,1.83
2018-07-22T17:52:35.411Z,2.00
2018-07-22T17:55:06.188Z,1.53
2018-07-22T17:57:36.927Z,1.70
2018-07-22T18:00:08.004Z,2.00
2018-07-22T18:02:40.687Z,1.70
2018-07-22T18:05:11.509Z,2.00
2018-07-22T18:07:42.157Z,1.70
2018-07-22T18:10:12.813Z,1.80
2018-07-22T18:12:43.380Z,1.77
2018-07-22T18:15:14.104Z,1.97
2018-07-22T18:17:44.764Z,2.40
2018-07-22T18:20:15.557Z,1.80
2018-07-22T18:22:46.259Z,1.63
2018-07-22T18:25:16.988Z,1.97
2018-07-22T18:27:47.561Z,1.90
2018-07-22T18:30:18.481Z,2.10
2018-07-22T18:32:49.173Z,2.10
2018-07-22T18:35:20.041Z,2.20
2018-07-22T18:37:50.589Z,2.10
2018-07-22T18:40:21.449Z,1.90
2018-07-22T18:42:51.861Z,2.00
2018-07-22T18:45:22.784Z,2.40
2018-07-22T18:47:53.792Z,2.27
2018-07-22T18:50:24.629Z,2.20
2018-07-22T18:52:55.142Z,2.00
2018-07-22T18:55:26.260Z,2.20
2018-07-22T18:57:56.553Z,1.70
2018-07-22T19:00:26.933Z,2.60
2018-07-22T19:02:57.189Z,1.97
2018-07-22T19:05:27.663Z,1.93
2018-07-22T19:07:57.941Z,2.50
2018-07-22T19:10:28.245Z,2.30
2018-07-22T19:12:58.479Z,2.17
2018-07-22T19:15:28.736Z,2.63
2018-07-22T19:17:59.081Z,2.60
2018-07-22T19:20:29.475Z,2.40
2018-07-22T19:23:00.265Z,2.33
2018-07-22T19:25:30.580Z,1.73
2018-07-22T19:28:00.832Z,2.27
2018-07-22T19:30:31.139Z,2.80
2018-07-22T19:33:01.682Z,3.57
2018-07-22T19:35:32.034Z,2.10
2018-07-22T19:38:02.392Z,2.40
2018-07-22T19:40:32.621Z,2.47
2018-07-22T19:43:02.865Z,2.40
2018-07-22T19:45:33.536Z,2.00
2018-07-22T19:48:03.872Z,2.43
2018-07-22T19:50:34.589Z,2.80
2018-07-22T19:53:04.845Z,2.30
2018-07-22T19:55:35.140Z,2.27
2018-07-22T19:58:05.633Z,2.90
2018-07-22T20:00:36.558Z,2.80
2018-07-22T20:03:07.390Z,2.50
2018-07-22T20:05:38.050Z,2.57
2018-07-22T20:08:08.357Z,2.50
2018-07-22T20:10:38.669Z,2.23
2018-07-22T20:13:08.956Z,3.03
2018-07-22T20:15:39.922Z,2.63
2018-07-22T20:18:10.609Z,2.40
2018-07-22T20:20:41.489Z,2.60
2018-07-22T20:23:11.810Z,2.83
2018-07-22T20:25:42.111Z,2.47
2018-07-22T20:28:12.689Z,2.40
2018-07-22T20:30:42.533Z,2.50
2018-07-22T20:33:13.344Z,2.30
2018-07-22T20:35:57.755Z,2.80
2018-07-22T20:38:28.549Z,2.20
2018-07-22T20:40:59.233Z,2.40
2018-07-22T20:43:30.965Z,2.43
2018-07-22T20:46:01.246Z,2.30
2018-07-22T20:48:32.168Z,2.43
2018-07-22T20:51:02.905Z,2.50
2018-07-22T20:53:33.645Z,2.33
2018-07-22T20:56:04.280Z,2.73
2018-07-22T20:58:34.429Z,2.20
2018-07-22T21:01:05.106Z,2.20
2018-07-22T21:03:35.500Z,2.37
2018-07-22T21:06:06.062Z,2.70
2018-07-22T21:08:36.830Z,2.67
2018-07-22T21:11:07.539Z,3.10
2018-07-22T21:13:38.210Z,2.90
2018-07-22T21:16:08.741Z,2.60
2018-07-22T21:18:39.472Z,2.97
2018-07-22T21:21:10.078Z,2.67
2018-07-22T21:23:40.881Z,2.70
2018-07-22T21:26:11.596Z,2.93
2018-07-22T21:28:42.357Z,2.80
2018-07-22T21:31:12.601Z,3.00
2018-07-22T21:33:43.025Z,2.90
2018-07-22T21:38:48.931Z,3.10
2018-07-22T21:41:19.177Z,2.77
2018-07-22T21:43:49.449Z,2.77
2018-07-22T21:46:19.833Z,2.77
2018-07-22T21:48:50.101Z,2.60
2018-07-22T21:51:20.382Z,2.20
2018-07-22T21:53:50.661Z,2.37
2018-07-22T21:56:21.405Z,2.70
2018-07-22T21:58:51.673Z,2.33
2018-07-22T22:01:21.909Z,2.37
2018-07-22T22:03:51.900Z,2.60
2018-07-22T22:06:22.194Z,2.23
2018-07-22T22:08:52.510Z,2.33
2018-07-22T22:11:22.724Z,2.30
2018-07-22T22:13:53.056Z,2.50
2018-07-22T22:16:23.406Z,3.20
2018-07-22T22:18:54.453Z,2.40
2018-07-22T22:21:24.734Z,2.40
2018-07-22T22:23:55.097Z,2.30
2018-07-22T22:26:25.390Z,2.57
2018-07-22T22:28:55.742Z,2.30
2018-07-22T22:31:25.976Z,2.83
2018-07-22T22:33:56.301Z,2.60
2018-07-22T22:36:34.510Z,2.47
2018-07-22T22:39:07.261Z,2.50
2018-07-22T22:41:37.627Z,2.83
2018-07-22T22:44:08.605Z,4.60
2018-07-22T22:46:39.540Z,2.60
2018-07-22T22:49:10.520Z,2.80
2018-07-22T22:51:47.641Z,3.20
2018-07-22T22:54:20.025Z,2.47
2018-07-22T22:56:50.332Z,2.80
2018-07-22T22:59:22.245Z,2.87
2018-07-22T23:01:56.627Z,3.13
2018-07-22T23:04:27.186Z,3.23
2018-07-22T23:06:57.395Z,3.30
2018-07-22T23:09:27.787Z,3.03
2018-07-22T23:11:58.113Z,3.07
2018-07-22T23:14:28.495Z,3.30
2018-07-22T23:16:58.786Z,3.57
2018-07-22T23:19:29.245Z,3.17
2018-07-22T23:21:59.720Z,3.07
2018-07-22T23:24:30.376Z,3.07
2018-07-22T23:27:00.646Z,3.50
2018-07-22T23:29:30.876Z,3.93
2018-07-22T23:32:01.413Z,2.67
2018-07-22T23:34:31.620Z,3.33
2018-07-22T23:37:02.217Z,2.93
2018-07-22T23:39:32.905Z,2.97
2018-07-22T23:42:03.184Z,2.43
2018-07-22T23:44:33.617Z,2.87
2018-07-22T23:47:04.217Z,2.73
2018-07-22T23:49:34.973Z,3.10
2018-07-22T23:52:05.261Z,3.80
2018-07-22T23:54:35.556Z,3.37
2018-07-22T23:57:06.218Z,3.40
2018-07-22T23:59:36.530Z,3.47
